createdAt,value
2022-11-05T17:03:09.528Z,99.90
2022-11-05T17:05:36.420Z,99.90
2022-11-05T17:08:03.642Z,99.90
2022-11-05T17:10:30.795Z,99.90
2022-11-05T17:12:57.893Z,99.90
2022-11-05T17:15:27.853Z,99.90
2022-11-05T17:17:56.246Z,99.90
2022-11-05T17:20:23.530Z,99.90
2022-11-05T17:22:50.477Z,99.90
2022-11-05T17:25:17.454Z,99.90
2022-11-05T17:27:44.346Z,99.90
2022-11-05T17:30:28.572Z,99.90
2022-11-05T17:32:56.050Z,99.90
2022-11-05T17:35:23.582Z,99.90
2022-11-05T17:37:51.569Z,99.90
2022-11-05T17:40:22.397Z,99.90
2022-11-05T17:42:50.617Z,99.90
2022-11-05T17:45:18.249Z,99.90
2022-11-05T17:47:45.127Z,99.90
2022-11-05T17:50:15.050Z,99.90
2022-11-05T17:52:42.617Z,99.90
2022-11-05T17:55:16.720Z,99.90
2022-11-05T17:57:48.775Z,99.90
2022-11-05T18:00:19.126Z,99.90
2022-11-05T18:02:48.470Z,99.90
2022-11-05T18:05:18.037Z,99.90
2022-11-05T18:07:45.687Z,99.90
2022-11-05T18:10:15.296Z,99.90
2022-11-05T18:12:42.983Z,99.90
2022-11-05T18:15:10.916Z,99.90
2022-11-05T18:17:38.231Z,99.90
2022-11-05T18:20:11.619Z,99.90
2022-11-05T18:22:41.190Z,99.90
2022-11-05T18:25:09.312Z,99.90
2022-11-05T18:27:36.616Z,99.90
2022-11-05T18:30:04.750Z,99.80
2022-11-05T18:32:32.062Z,99.70
2022-11-05T18:34:59.123Z,99.50
2022-11-05T18:37:26.162Z,99.30
2022-11-05T18:39:53.881Z,99.10
2022-11-05T18:42:22.650Z,98.90
2022-11-05T18:44:49.814Z,99.10
2022-11-05T18:47:16.776Z,99.40
2022-11-05T18:49:43.575Z,99.60
2022-11-05T18:52:10.510Z,99.70
2022-11-05T18:54:37.497Z,99.70
2022-11-05T18:57:04.494Z,99.90
2022-11-05T18:59:38.589Z,99.90
2022-11-05T19:02:08.705Z,99.90
2022-11-05T19:04:36.479Z,99.90
2022-11-05T19:07:05.481Z,99.70
2022-11-05T19:09:38.173Z,99.70
2022-11-05T19:12:07.279Z,99.60
2022-11-05T19:14:35.714Z,99.90
2022-11-05T19:17:03.657Z,99.70
2022-11-05T19:19:30.715Z,99.80
2022-11-05T19:21:57.643Z,99.90
2022-11-05T19:24:24.533Z,99.90
2022-11-05T19:26:51.432Z,99.90
2022-11-05T19:29:18.760Z,99.90
2022-11-05T19:31:46.754Z,99.90
2022-11-05T19:34:14.768Z,99.90
2022-11-05T19:36:42.687Z,99.90
2022-11-05T19:39:12.622Z,99.90
2022-11-05T19:41:39.999Z,99.90
2022-11-05T19:44:07.180Z,99.90
2022-11-05T19:46:34.401Z,99.90
2022-11-05T19:49:01.871Z,99.90
2022-11-05T19:51:31.239Z,99.90
2022-11-05T19:54:00.519Z,99.90
2022-11-05T19:56:30.360Z,99.90
2022-11-05T19:58:58.089Z,99.90
2022-11-05T20:01:26.809Z,99.90
2022-11-05T20:03:55.327Z,99.90
2022-11-05T20:06:28.604Z,99.90
2022-11-05T20:11:49.973Z,99.90
2022-11-05T20:14:17.195Z,99.90
2022-11-05T20:16:47.471Z,99.90
2022-11-05T20:19:17.513Z,99.90
2022-11-05T20:21:44.988Z,99.90
2022-11-05T20:24:16.132Z,99.90
2022-11-05T20:26:45.503Z,99.90
2022-11-05T20:29:13.085Z,99.90
2022-11-05T20:31:40.460Z,99.90
2022-11-05T20:34:07.511Z,99.90
2022-11-05T20:36:35.278Z,99.90
2022-11-05T20:39:05.867Z,99.90
2022-11-05T20:41:34.071Z,99.90
2022-11-05T20:44:04.833Z,99.90
2022-11-05T20:46:32.950Z,99.90
2022-11-05T20:49:00.988Z,99.90
2022-11-05T20:51:27.845Z,99.90
2022-11-05T20:53:56.965Z,99.90
2022-11-05T20:56:29.896Z,99.90
2022-11-05T20:58:58.885Z,99.90
2022-11-05T21:01:28.632Z,99.90
2022-11-05T21:03:56.567Z,99.90
2022-11-05T21:06:25.917Z,99.90
2022-11-05T21:08:52.932Z,99.90
2022-11-05T21:11:22.187Z,99.90
2022-11-05T21:13:51.333Z,99.90
2022-11-05T21:16:20.466Z,99.90
2022-11-05T21:18:47.992Z,99.90
2022-11-05T21:21:20.579Z,99.90
2022-11-05T21:23:47.969Z,99.90
2022-11-05T21:26:16.828Z,99.90
2022-11-05T21:28:43.773Z,99.90
2022-11-05T21:31:10.941Z,99.90
2022-11-05T21:33:38.258Z,99.90
2022-11-05T21:36:11.024Z,99.90
2022-11-05T21:38:38.584Z,99.90
2022-11-05T21:41:07.519Z,99.90
2022-11-05T21:43:34.942Z,99.90
2022-11-05T21:46:03.343Z,99.90
2022-11-05T21:48:30.729Z,99.90
2022-11-05T21:51:16.153Z,99.90
2022-11-05T21:54:01.513Z,99.90
2022-11-05T21:56:47.343Z,99.90
2022-11-05T21:59:35.602Z,99.90
2022-11-05T22:02:03.608Z,99.90
2022-11-05T22:04:32.572Z,99.90
2022-11-05T22:07:00.161Z,99.90
2022-11-05T22:09:27.918Z,99.90
2022-11-05T22:11:55.934Z,99.90
2022-11-05T22:14:24.035Z,99.90
2022-11-05T22:16:51.002Z,99.90
2022-11-05T22:19:18.617Z,99.90
2022-11-05T22:21:46.044Z,99.90
2022-11-05T22:24:13.340Z,99.90
2022-11-05T22:26:41.450Z,99.90
2022-11-05T22:29:09.217Z,99.90
2022-11-05T22:31:36.953Z,99.90
2022-11-05T22:34:05.032Z,99.90
2022-11-05T22:36:32.964Z,99.90
2022-11-05T22:39:00.272Z,99.90
2022-11-05T22:41:28.260Z,99.90
2022-11-05T22:43:55.785Z,99.90
2022-11-05T22:46:25.090Z,99.90
2022-11-05T22:48:52.917Z,99.90
2022-11-05T22:51:23.181Z,99.90
2022-11-05T22:53:50.706Z,99.90
2022-11-05T22:56:20.840Z,99.90
2022-11-05T22:58:48.438Z,99.90
2022-11-05T23:01:16.212Z,99.90
2022-11-05T23:03:45.259Z,99.90
2022-11-05T23:06:36.184Z,99.90
2022-11-05T23:09:25.490Z,99.90
2022-11-05T23:11:53.957Z,99.90
2022-11-05T23:14:20.992Z,99.90
2022-11-05T23:17:06.642Z,99.90
2022-11-05T23:19:52.328Z,99.90
2022-11-05T23:22:42.667Z,99.90
2022-11-05T23:25:14.677Z,99.90
2022-11-05T23:27:41.840Z,99.90
2022-11-05T23:30:19.411Z,99.90
2022-11-05T23:32:47.061Z,99.90
2022-11-05T23:35:14.313Z,99.90
2022-11-05T23:38:00.330Z,99.90
2022-11-05T23:40:55.524Z,99.90
2022-11-05T23:43:40.992Z,99.90
2022-11-05T23:46:26.589Z,99.90
2022-11-05T23:49:04.760Z,99.90
2022-11-05T23:51:32.022Z,99.90
2022-11-05T23:53:59.676Z,99.90
2022-11-05T23:56:27.217Z,99.90
2022-11-05T23:58:54.487Z,99.90
